Time;durP1;ratioP1;P1;durP2;ratioP2;P2;SDS_P1;SDS_P2;PMS_P1;PMS_P2;Temp;Humidity;BMP_temperature;BMP_pressure;BME280_temperature;BME280_humidity;BME280_pressure;Samples;Min_cycle;Max_cycle;Signal;HPM_P1;HPM_P2
2022/01/01 00:00:36;;;;;;;34.97;22.30;;;13.10;99.90;;;;;;5065532;28;20642;-84
2022/01/01 00:03:05;;;;;;;33.20;21.00;;;13.10;99.90;;;;;;5061521;28;20484;-82
2022/01/01 00:05:34;;;;;;;22.80;17.17;;;13.10;99.90;;;;;;5045483;28;20457;-83
2022/01/01 00:08:05;;;;;;;27.10;16.87;;;13.00;99.90;;;;;;5045307;28;20468;-84
2022/01/01 00:10:33;;;;;;;24.20;14.73;;;13.00;99.90;;;;;;5045408;28;20465;-83
2022/01/01 00:13:15;;;;;;;22.30;15.57;;;13.00;99.90;;;;;;5045587;28;21317;-83
2022/01/01 00:15:43;;;;;;;25.77;16.20;;;13.10;99.90;;;;;;5045494;28;20444;-83
2022/01/01 00:18:13;;;;;;;24.53;15.30;;;13.10;99.90;;;;;;5051006;28;20489;-82
2022/01/01 00:20:41;;;;;;;24.60;17.50;;;13.00;99.90;;;;;;5065550;28;20485;-82
2022/01/01 00:23:10;;;;;;;25.87;16.30;;;13.00;99.90;;;;;;5054419;28;20467;-83
2022/01/01 00:25:38;;;;;;;28.90;18.20;;;13.00;99.90;;;;;;5065431;28;20456;-81
2022/01/01 00:28:12;;;;;;;26.70;18.00;;;12.90;99.90;;;;;;5055482;28;20449;-83
2022/01/01 00:30:40;;;;;;;29.93;20.20;;;12.90;99.90;;;;;;5045642;28;20462;-83
2022/01/01 00:33:08;;;;;;;25.10;16.60;;;12.80;99.90;;;;;;5051846;28;20468;-82
2022/01/01 00:35:40;;;;;;;25.47;17.97;;;12.80;99.90;;;;;;5065258;28;20519;-82
2022/01/01 00:38:08;;;;;;;30.50;20.67;;;12.70;99.90;;;;;;5044855;28;21078;-82
2022/01/01 00:40:36;;;;;;;22.10;16.90;;;12.70;99.90;;;;;;5045183;28;20448;-83
2022/01/01 00:43:05;;;;;;;27.63;19.13;;;12.60;99.90;;;;;;5044957;28;20529;-82
2022/01/01 00:45:33;;;;;;;24.37;16.20;;;12.70;99.90;;;;;;5044926;28;20468;-83
2022/01/01 00:48:02;;;;;;;19.10;13.90;;;12.70;99.90;;;;;;5045240;28;20664;-81
2022/01/01 00:50:30;;;;;;;22.20;16.27;;;12.60;99.90;;;;;;5044823;28;20529;-83
2022/01/01 00:53:03;;;;;;;22.83;14.00;;;12.50;99.90;;;;;;5044423;28;20503;-82
2022/01/01 00:55:31;;;;;;;24.70;14.60;;;12.50;99.90;;;;;;5043272;28;20490;-84
2022/01/01 00:58:00;;;;;;;26.07;17.10;;;12.50;99.90;;;;;;5044371;28;20479;-83
2022/01/01 01:00:29;;;;;;;21.27;15.70;;;12.50;99.90;;;;;;5044416;28;20551;-83
2022/01/01 01:02:57;;;;;;;22.87;15.27;;;12.40;99.90;;;;;;5044591;28;20463;-83
2022/01/01 01:05:26;;;;;;;25.10;14.50;;;12.30;99.90;;;;;;5056958;28;20561;-82
2022/01/01 01:07:54;;;;;;;21.00;14.63;;;12.30;99.90;;;;;;5055962;28;20458;-82
2022/01/01 01:10:24;;;;;;;18.23;11.70;;;12.30;99.90;;;;;;5064535;28;20459;-83
2022/01/01 01:12:53;;;;;;;17.10;13.10;;;12.30;99.90;;;;;;5064057;28;20474;-82
2022/01/01 01:15:21;;;;;;;20.23;14.67;;;12.20;99.90;;;;;;5058753;28;20461;-83
2022/01/01 01:17:51;;;;;;;18.70;11.90;;;12.20;99.90;;;;;;5043647;28;20471;-83
2022/01/01 01:20:21;;;;;;;17.90;11.50;;;12.20;99.90;;;;;;5044943;28;20678;-82
2022/01/01 01:22:50;;;;;;;23.00;14.20;;;12.20;99.90;;;;;;5062906;28;20473;-83
2022/01/01 01:25:20;;;;;;;26.13;13.97;;;12.30;99.90;;;;;;5050840;28;20458;-82
2022/01/01 01:27:50;;;;;;;16.23;10.50;;;12.30;99.90;;;;;;5053256;28;20454;-83
2022/01/01 01:30:19;;;;;;;11.40;9.00;;;12.30;99.90;;;;;;5043063;28;20470;-83
2022/01/01 01:32:47;;;;;;;16.20;9.87;;;12.20;99.90;;;;;;5059873;28;21024;-83
2022/01/01 01:35:17;;;;;;;19.10;11.40;;;12.30;99.90;;;;;;5063686;28;20464;-83
2022/01/01 01:37:45;;;;;;;18.20;10.60;;;12.30;99.90;;;;;;5050956;28;21027;-83
2022/01/01 01:40:13;;;;;;;19.13;10.73;;;12.30;99.90;;;;;;5053875;28;20444;-83
2022/01/01 01:42:43;;;;;;;18.23;11.43;;;12.30;99.90;;;;;;5059515;28;20548;-83
2022/01/01 01:45:17;;;;;;;18.47;13.23;;;12.30;99.90;;;;;;5062491;28;20541;-83
2022/01/01 01:47:46;;;;;;;18.53;11.37;;;12.30;99.90;;;;;;5055999;28;20460;-84
2022/01/01 01:50:15;;;;;;;18.33;11.07;;;12.30;99.90;;;;;;5055976;28;20470;-83
2022/01/01 01:52:46;;;;;;;16.20;10.50;;;12.30;99.90;;;;;;5064155;28;20532;-82
2022/01/01 01:55:15;;;;;;;15.70;9.87;;;12.20;99.90;;;;;;5047923;28;20460;-82
2022/01/01 01:57:43;;;;;;;14.27;9.67;;;12.30;99.90;;;;;;5042899;28;20674;-82
2022/01/01 02:00:31;;;;;;;19.43;10.50;;;12.30;99.90;;;;;;5042874;28;20525;-83
2022/01/01 02:03:00;;;;;;;14.77;8.67;;;12.30;99.90;;;;;;5043318;28;20483;-82
2022/01/01 02:05:28;;;;;;;13.50;9.07;;;12.20;99.90;;;;;;5046429;28;20466;-83
2022/01/01 02:07:57;;;;;;;13.40;9.00;;;12.30;99.90;;;;;;5050975;28;20513;-82
2022/01/01 02:10:26;;;;;;;14.60;9.70;;;12.20;99.90;;;;;;5043438;28;20528;-82
2022/01/01 02:12:56;;;;;;;13.77;9.13;;;12.20;99.90;;;;;;5055106;28;20475;-83
2022/01/01 02:15:41;;;;;;;15.47;10.97;;;12.20;99.90;;;;;;5057366;28;20450;-82
2022/01/01 02:18:09;;;;;;;13.03;9.17;;;12.20;99.90;;;;;;5043006;28;20462;-83
2022/01/01 02:20:39;;;;;;;11.50;8.50;;;12.20;99.90;;;;;;5043757;28;20447;-82
2022/01/01 02:23:11;;;;;;;9.80;6.93;;;12.20;99.90;;;;;;5041996;28;20485;-82
2022/01/01 02:25:39;;;;;;;15.70;8.40;;;12.20;99.90;;;;;;5042693;28;20447;-83
2022/01/01 02:28:08;;;;;;;13.13;7.93;;;12.20;99.90;;;;;;5048208;28;20527;-82
2022/01/01 02:30:36;;;;;;;8.80;6.77;;;12.20;99.90;;;;;;5060914;28;20463;-82
2022/01/01 02:33:04;;;;;;;9.73;5.70;;;12.30;99.90;;;;;;5062828;28;20466;-81
2022/01/01 02:35:33;;;;;;;9.03;6.00;;;12.30;1.00;;;;;;5049187;28;20983;-82
2022/01/01 02:38:03;;;;;;;9.70;5.70;;;12.30;1.00;;;;;;5042246;28;21352;-83
2022/01/01 02:40:31;;;;;;;9.47;6.23;;;12.40;1.00;;;;;;5040484;28;20459;-83
2022/01/01 02:43:00;;;;;;;12.60;6.40;;;12.40;1.00;;;;;;5042953;28;20473;-83
2022/01/01 02:45:29;;;;;;;9.77;7.27;;;12.40;99.90;;;;;;5044433;28;20481;-82
2022/01/01 02:47:57;;;;;;;9.67;6.10;;;12.40;1.00;;;;;;5050099;28;20551;-82
2022/01/01 02:50:25;;;;;;;9.40;5.83;;;12.40;1.00;;;;;;5042385;28;20461;-82
2022/01/01 02:52:54;;;;;;;7.90;6.93;;;12.40;1.00;;;;;;5053065;28;20979;-82
2022/01/01 02:55:23;;;;;;;11.40;7.23;;;12.40;1.00;;;;;;5066285;28;20460;-82
2022/01/01 02:57:51;;;;;;;10.10;6.57;;;12.40;1.00;;;;;;5046473;28;20714;-83
2022/01/01 03:00:20;;;;;;;9.60;7.33;;;12.40;1.00;;;;;;5046995;28;20506;-83
2022/01/01 03:02:48;;;;;;;9.37;6.17;;;12.40;1.00;;;;;;5047680;28;21020;-83
2022/01/01 03:05:16;;;;;;;10.60;7.73;;;12.40;1.00;;;;;;5046079;28;20809;-82
2022/01/01 03:07:45;;;;;;;8.40;5.87;;;12.40;1.00;;;;;;5046566;28;20479;-82
2022/01/01 03:10:13;;;;;;;10.40;6.20;;;12.40;1.00;;;;;;5044843;28;20466;-82
2022/01/01 03:12:42;;;;;;;10.00;6.40;;;12.30;1.00;;;;;;5046036;28;21055;-81
2022/01/01 03:15:11;;;;;;;7.13;5.23;;;12.40;1.00;;;;;;5046049;28;20481;-83
2022/01/01 03:17:40;;;;;;;10.67;6.10;;;12.40;1.00;;;;;;5046190;28;20460;-83
2022/01/01 03:20:09;;;;;;;15.83;7.03;;;12.40;1.00;;;;;;5045890;28;20576;-82
2022/01/01 03:22:38;;;;;;;11.93;7.17;;;12.40;1.00;;;;;;5045267;28;20530;-83
2022/01/01 03:25:06;;;;;;;13.87;7.80;;;12.50;1.00;;;;;;5046346;28;21251;-82
2022/01/01 03:27:34;;;;;;;13.30;8.37;;;12.50;1.00;;;;;;5069148;28;20984;-82
2022/01/01 03:30:05;;;;;;;16.53;9.93;;;12.40;1.00;;;;;;5047513;28;20462;-83
2022/01/01 03:32:33;;;;;;;14.57;9.53;;;12.50;1.00;;;;;;5046019;28;20478;-82
2022/01/01 03:35:01;;;;;;;12.73;8.87;;;12.40;1.00;;;;;;5046045;28;20921;-83
2022/01/01 03:37:29;;;;;;;16.20;9.27;;;12.40;1.00;;;;;;5055691;28;20988;-82
2022/01/01 03:39:57;;;;;;;13.70;9.13;;;12.40;1.00;;;;;;5050188;28;20528;-83
2022/01/01 03:42:25;;;;;;;14.37;9.03;;;12.40;1.00;;;;;;5065621;28;20466;-83
2022/01/01 03:44:54;;;;;;;8.70;6.87;;;12.40;1.00;;;;;;5046874;28;20459;-82
2022/01/01 03:47:23;;;;;;;5.83;4.43;;;12.50;1.00;;;;;;5045502;28;20461;-82
2022/01/01 03:49:51;;;;;;;8.10;4.63;;;12.50;1.00;;;;;;5059965;28;20467;-82
2022/01/01 03:52:19;;;;;;;5.47;3.57;;;12.50;1.00;;;;;;5064154;28;20481;-82
2022/01/01 03:54:48;;;;;;;8.77;3.20;;;12.50;1.00;;;;;;5063395;28;20464;-82
2022/01/01 03:57:16;;;;;;;3.80;3.40;;;12.60;1.00;;;;;;5065536;28;20546;-82
2022/01/01 03:59:44;;;;;;;5.60;4.03;;;12.60;1.00;;;;;;5064428;28;21005;-82
2022/01/01 04:02:13;;;;;;;4.20;2.83;;;12.60;1.00;;;;;;5045359;28;20478;-82
2022/01/01 04:04:43;;;;;;;4.80;3.10;;;12.60;1.00;;;;;;5044559;28;20465;-83
2022/01/01 04:07:11;;;;;;;3.43;2.63;;;12.60;1.00;;;;;;5045807;28;20451;-83
2022/01/01 04:09:39;;;;;;;3.47;2.80;;;12.50;1.00;;;;;;5044807;28;20452;-82
2022/01/01 04:12:08;;;;;;;4.00;2.87;;;12.50;1.00;;;;;;5061494;28;20486;-82
2022/01/01 04:14:36;;;;;;;8.23;2.90;;;12.50;1.00;;;;;;5065237;28;21197;-83
2022/01/01 04:17:04;;;;;;;4.70;3.00;;;12.50;1.00;;;;;;5057247;28;20509;-83
2022/01/01 04:19:39;;;;;;;10.43;5.87;;;12.60;1.00;;;;;;5045239;28;20476;-82
2022/01/01 04:22:10;;;;;;;7.00;5.73;;;12.60;1.00;;;;;;5052812;28;20563;-83
2022/01/01 04:24:40;;;;;;;9.27;5.30;;;12.70;1.00;;;;;;5048977;28;20452;-83
2022/01/01 04:27:09;;;;;;;4.53;3.77;;;12.70;1.00;;;;;;5053520;28;20462;-83
2022/01/01 04:29:38;;;;;;;3.30;2.30;;;12.70;1.00;;;;;;5061840;28;20529;-81
2022/01/01 04:32:07;;;;;;;4.73;2.50;;;12.70;1.00;;;;;;5055121;28;21002;-82
2022/01/01 04:34:35;;;;;;;3.23;2.20;;;12.70;1.00;;;;;;5045146;28;20463;-84
2022/01/01 04:37:10;;;;;;;3.27;2.23;;;12.70;99.90;;;;;;5044968;28;20449;-82
2022/01/01 04:39:40;;;;;;;2.70;2.43;;;12.80;99.90;;;;;;5044568;28;20478;-82
2022/01/01 04:42:08;;;;;;;3.57;2.47;;;12.70;99.90;;;;;;5044841;28;20472;-82
2022/01/01 04:44:37;;;;;;;3.20;2.60;;;12.70;99.90;;;;;;5044731;28;21046;-83
2022/01/01 04:47:05;;;;;;;4.27;2.23;;;12.50;99.90;;;;;;5043070;28;20477;-83
2022/01/01 04:49:33;;;;;;;4.57;2.07;;;12.60;99.90;;;;;;5044674;28;20479;-82
2022/01/01 04:52:01;;;;;;;2.87;2.10;;;12.70;99.90;;;;;;5057393;28;20506;-82
2022/01/01 04:54:30;;;;;;;2.60;1.90;;;12.70;99.90;;;;;;5064590;28;20455;-82
2022/01/01 04:56:59;;;;;;;3.23;2.30;;;12.70;99.90;;;;;;5052161;28;20452;-82
2022/01/01 04:59:27;;;;;;;5.43;2.53;;;12.60;99.90;;;;;;5043813;28;20464;-82
2022/01/01 05:01:55;;;;;;;2.47;2.27;;;12.60;99.90;;;;;;5045074;28;20484;-82
2022/01/01 05:04:27;;;;;;;3.60;3.07;;;12.60;99.90;;;;;;5064320;28;20489;-82
2022/01/01 05:06:57;;;;;;;2.73;1.90;;;12.60;99.90;;;;;;5064706;28;20470;-82
2022/01/01 05:09:27;;;;;;;3.73;2.23;;;12.60;99.90;;;;;;5064263;28;21262;-83
2022/01/01 05:11:56;;;;;;;2.73;2.50;;;12.50;99.90;;;;;;5050038;28;21006;-82
2022/01/01 05:14:25;;;;;;;3.77;2.53;;;12.40;99.90;;;;;;5043862;28;20459;-82
2022/01/01 05:16:55;;;;;;;3.60;2.23;;;12.40;99.90;;;;;;5044365;28;20451;-82
2022/01/01 05:19:24;;;;;;;2.73;2.37;;;12.40;99.90;;;;;;5043612;28;20598;-82
2022/01/01 05:21:55;;;;;;;3.67;1.67;;;12.40;99.90;;;;;;5041261;28;20487;-82
2022/01/01 05:24:23;;;;;;;2.77;2.07;;;12.40;99.90;;;;;;5051408;28;20461;-82
2022/01/01 05:26:53;;;;;;;2.80;2.30;;;12.40;99.90;;;;;;5069501;28;20569;-82
2022/01/01 05:29:21;;;;;;;3.80;1.90;;;12.20;99.90;;;;;;5053047;28;20509;-82
2022/01/01 05:31:51;;;;;;;2.07;1.90;;;12.30;99.90;;;;;;5044246;28;20475;-83
2022/01/01 05:34:19;;;;;;;2.80;1.90;;;12.30;99.90;;;;;;5044074;28;21305;-82
2022/01/01 05:36:47;;;;;;;3.67;2.17;;;12.40;99.90;;;;;;5051442;28;20458;-82
2022/01/01 05:39:16;;;;;;;3.10;2.20;;;12.40;99.90;;;;;;5048802;28;20883;-82
2022/01/01 05:41:44;;;;;;;2.77;1.90;;;12.40;99.90;;;;;;5043689;28;20479;-83
2022/01/01 05:44:13;;;;;;;2.63;1.90;;;12.40;99.90;;;;;;5042180;28;20519;-82
2022/01/01 05:46:41;;;;;;;3.23;2.37;;;12.30;99.90;;;;;;5044076;28;20452;-83
2022/01/01 05:49:10;;;;;;;4.77;3.20;;;12.30;99.90;;;;;;5043136;28;20482;-83
2022/01/01 05:51:39;;;;;;;5.30;2.67;;;12.30;99.90;;;;;;5045044;28;21019;-83
2022/01/01 05:54:07;;;;;;;5.40;3.33;;;12.20;99.90;;;;;;5044479;28;20538;-83
2022/01/01 05:56:35;;;;;;;3.87;3.13;;;12.20;99.90;;;;;;5043570;28;20475;-83
2022/01/01 05:59:03;;;;;;;4.90;2.50;;;12.10;99.90;;;;;;5043332;28;20461;-82
2022/01/01 06:01:31;;;;;;;5.97;2.57;;;12.10;99.90;;;;;;5042980;28;20483;-82
2022/01/01 06:04:00;;;;;;;4.70;3.60;;;12.10;99.90;;;;;;5043262;28;20475;-82
2022/01/01 06:06:30;;;;;;;9.50;3.50;;;11.50;99.90;;;;;;5041811;28;20458;-83
2022/01/01 06:08:59;;;;;;;6.80;3.77;;;11.90;99.90;;;;;;5043264;28;20461;-82
2022/01/01 06:11:28;;;;;;;5.37;4.10;;;11.90;99.90;;;;;;5053026;28;20453;-82
2022/01/01 06:13:56;;;;;;;4.80;3.47;;;11.80;99.90;;;;;;5056137;28;20463;-82
2022/01/01 06:16:24;;;;;;;5.17;3.67;;;11.80;99.90;;;;;;5063189;28;20524;-82
2022/01/01 06:18:52;;;;;;;5.70;3.63;;;11.70;99.90;;;;;;5062998;28;20462;-82
2022/01/01 06:21:21;;;;;;;4.57;3.37;;;11.70;99.90;;;;;;5063074;28;20474;-82
2022/01/01 06:23:50;;;;;;;7.17;3.80;;;11.70;99.90;;;;;;5062155;28;20482;-82
2022/01/01 06:26:18;;;;;;;7.70;5.30;;;11.70;99.90;;;;;;5062711;28;20461;-82
2022/01/01 06:28:46;;;;;;;4.10;3.70;;;11.70;99.90;;;;;;5053269;28;20451;-82
2022/01/01 06:31:15;;;;;;;5.57;4.30;;;11.70;99.90;;;;;;5042897;28;20512;-82
2022/01/01 06:33:43;;;;;;;6.13;4.47;;;11.60;99.90;;;;;;5042736;28;20492;-83
2022/01/01 06:36:13;;;;;;;7.97;4.73;;;11.60;99.90;;;;;;5042434;28;20472;-82
2022/01/01 06:38:42;;;;;;;5.97;3.87;;;11.70;99.90;;;;;;5057488;28;20470;-82
2022/01/01 06:41:12;;;;;;;9.43;4.50;;;11.60;99.90;;;;;;5054478;28;21096;-82
2022/01/01 06:43:41;;;;;;;7.67;5.13;;;11.60;99.90;;;;;;5044418;28;20479;-83
2022/01/01 06:46:09;;;;;;;6.40;5.20;;;11.60;99.90;;;;;;5063273;28;20622;-82
2022/01/01 06:48:37;;;;;;;4.50;4.10;;;11.60;99.90;;;;;;5060582;28;20462;-82
2022/01/01 06:51:05;;;;;;;6.37;4.50;;;11.70;99.90;;;;;;5042871;28;20691;-82
2022/01/01 06:53:33;;;;;;;4.60;3.97;;;11.70;99.90;;;;;;5041148;28;20483;-83
2022/01/01 06:56:05;;;;;;;3.70;2.80;;;11.70;99.90;;;;;;5042928;28;20516;-83
2022/01/01 06:58:35;;;;;;;5.10;3.10;;;11.80;99.90;;;;;;5047900;28;20504;-82
2022/01/01 07:01:04;;;;;;;6.93;3.43;;;11.80;99.90;;;;;;5054701;28;20485;-82
2022/01/01 07:03:33;;;;;;;4.27;3.33;;;11.80;99.90;;;;;;5046206;28;20843;-82
2022/01/01 07:06:01;;;;;;;3.73;2.37;;;11.70;99.90;;;;;;5042711;28;20469;-82
2022/01/01 07:08:30;;;;;;;5.30;2.50;;;11.60;99.90;;;;;;5042416;28;20466;-82
2022/01/01 07:10:58;;;;;;;3.33;2.47;;;11.70;99.90;;;;;;5043176;28;20808;-83
2022/01/01 07:13:26;;;;;;;3.00;2.50;;;11.80;99.90;;;;;;5043013;28;21014;-83
2022/01/01 07:15:56;;;;;;;3.90;2.77;;;11.40;99.90;;;;;;5042143;28;20463;-82
2022/01/01 07:18:24;;;;;;;4.23;2.60;;;12.00;99.90;;;;;;5049225;28;20996;-82
2022/01/01 07:20:52;;;;;;;3.80;2.03;;;12.00;99.90;;;;;;5042520;28;20859;-82
2022/01/01 07:23:20;;;;;;;2.43;2.23;;;12.00;99.90;;;;;;5042122;28;20505;-82
2022/01/01 07:25:48;;;;;;;3.03;1.97;;;12.00;99.90;;;;;;5042112;28;20497;-82
2022/01/01 07:28:16;;;;;;;2.90;2.07;;;12.10;99.90;;;;;;5051105;28;20470;-82
2022/01/01 07:30:45;;;;;;;2.27;2.00;;;12.10;99.90;;;;;;5055792;28;20483;-82
2022/01/01 07:33:14;;;;;;;4.83;2.33;;;12.10;99.90;;;;;;5053380;28;20541;-81
2022/01/01 07:35:43;;;;;;;5.57;3.03;;;12.10;99.90;;;;;;5048136;28;20520;-82
2022/01/01 07:38:11;;;;;;;3.73;2.87;;;12.10;99.90;;;;;;5062596;28;20460;-83
2022/01/01 07:40:39;;;;;;;3.70;3.20;;;12.20;99.90;;;;;;5048136;28;20495;-81
2022/01/01 07:43:12;;;;;;;7.60;2.60;;;12.20;99.90;;;;;;5046150;28;21017;-82
2022/01/01 07:45:40;;;;;;;5.63;4.20;;;12.10;99.90;;;;;;5046021;28;20932;-83
2022/01/01 07:48:10;;;;;;;3.83;2.67;;;12.10;99.90;;;;;;5045855;28;20463;-82
2022/01/01 07:50:40;;;;;;;5.40;3.43;;;12.10;99.90;;;;;;5045938;28;20462;-83
2022/01/01 07:53:09;;;;;;;3.73;2.93;;;12.00;99.90;;;;;;5046555;28;20476;-82
2022/01/01 07:55:37;;;;;;;4.60;3.40;;;11.90;99.90;;;;;;5045996;28;20467;-83
2022/01/01 07:58:08;;;;;;;2.70;2.50;;;11.90;99.90;;;;;;5044174;28;20464;-81
2022/01/01 08:00:36;;;;;;;4.70;1.90;;;11.80;99.90;;;;;;5046082;28;20458;-82
2022/01/01 08:03:04;;;;;;;3.80;2.60;;;11.90;99.90;;;;;;5045644;28;20494;-82
2022/01/01 08:05:33;;;;;;;2.63;1.80;;;11.90;99.90;;;;;;5057020;28;20517;-82
2022/01/01 08:08:02;;;;;;;3.50;1.90;;;11.90;99.90;;;;;;5057123;28;20512;-83
2022/01/01 08:10:31;;;;;;;2.50;1.70;;;12.00;99.90;;;;;;5045978;28;20564;-82
2022/01/01 08:13:00;;;;;;;2.03;1.50;;;12.10;99.90;;;;;;5043508;28;20668;-83
2022/01/01 08:15:28;;;;;;;3.23;1.57;;;12.10;99.90;;;;;;5043464;28;20451;-83
2022/01/01 08:17:56;;;;;;;3.43;1.87;;;12.10;99.90;;;;;;5043342;28;20535;-82
2022/01/01 08:20:37;;;;;;;2.63;1.70;;;12.00;99.90;;;;;;5050686;28;20448;-82
2022/01/01 08:23:06;;;;;;;1.87;1.53;;;12.00;99.90;;;;;;5049807;28;20622;-83
2022/01/01 08:25:35;;;;;;;1.90;1.40;;;11.90;99.90;;;;;;5045995;28;20456;-82
2022/01/01 08:28:05;;;;;;;1.70;1.47;;;11.90;99.90;;;;;;5047539;28;20483;-83
2022/01/01 08:30:33;;;;;;;1.60;1.50;;;11.90;99.90;;;;;;5045744;28;20465;-83
2022/01/01 08:33:02;;;;;;;1.40;1.20;;;11.90;99.90;;;;;;5045403;28;20496;-83
2022/01/01 08:35:31;;;;;;;1.40;1.30;;;12.00;99.90;;;;;;5044271;28;20848;-82
2022/01/01 08:38:00;;;;;;;2.40;1.80;;;11.70;99.90;;;;;;5059018;28;20451;-82
2022/01/01 08:40:29;;;;;;;1.60;1.50;;;11.90;99.90;;;;;;5045421;28;20471;-82
2022/01/01 08:42:58;;;;;;;4.47;1.57;;;12.10;99.90;;;;;;5049782;28;21073;-82
2022/01/01 08:45:32;;;;;;;2.37;1.50;;;12.20;99.90;;;;;;5045227;28;20471;-82
2022/01/01 08:48:00;;;;;;;3.27;1.83;;;12.20;99.90;;;;;;5044391;28;20920;-83
2022/01/01 08:50:28;;;;;;;2.03;1.40;;;12.20;99.90;;;;;;5049477;28;20458;-84
2022/01/01 08:52:57;;;;;;;3.07;1.50;;;12.30;99.90;;;;;;5044725;28;20510;-83
2022/01/01 08:55:25;;;;;;;3.97;2.43;;;12.40;99.90;;;;;;5044680;28;20470;-83
2022/01/01 08:57:55;;;;;;;2.53;1.90;;;12.60;99.90;;;;;;5044592;28;20459;-82
2022/01/01 09:00:43;;;;;;;3.07;2.13;;;12.60;99.90;;;;;;5045499;28;20457;-82
2022/01/01 09:03:11;;;;;;;3.27;2.00;;;12.70;99.90;;;;;;5058086;28;20480;-82
2022/01/01 09:05:42;;;;;;;2.90;2.17;;;12.70;99.90;;;;;;5045050;28;20550;-82
2022/01/01 09:08:31;;;;;;;2.10;1.80;;;12.80;99.90;;;;;;5044997;28;20447;-83
2022/01/01 09:11:00;;;;;;;3.10;2.20;;;12.80;99.90;;;;;;5054492;28;20457;-83
2022/01/01 09:13:30;;;;;;;3.07;2.43;;;12.80;99.90;;;;;;5046511;28;20466;-83
2022/01/01 09:15:59;;;;;;;3.10;2.03;;;12.90;99.90;;;;;;5043793;28;20565;-83
2022/01/01 09:18:27;;;;;;;3.40;2.00;;;12.90;99.90;;;;;;5044504;28;20521;-83
2022/01/01 09:20:56;;;;;;;3.73;2.00;;;12.90;99.90;;;;;;5044419;28;20848;-82
2022/01/01 09:23:27;;;;;;;2.47;1.70;;;12.90;99.90;;;;;;5043485;28;20582;-82
2022/01/01 09:25:55;;;;;;;3.00;2.00;;;12.90;99.90;;;;;;5054597;28;20468;-83
2022/01/01 09:28:24;;;;;;;2.73;1.60;;;12.90;99.90;;;;;;5053797;28;20456;-83
2022/01/01 09:30:53;;;;;;;1.93;1.83;;;12.90;99.90;;;;;;5061243;28;20458;-81
2022/01/01 09:33:22;;;;;;;3.20;1.80;;;13.00;99.90;;;;;;5062923;28;20480;-83
2022/01/01 09:35:50;;;;;;;2.53;1.67;;;13.00;99.90;;;;;;5060353;28;20472;-82
2022/01/01 09:38:18;;;;;;;2.57;2.20;;;13.00;99.90;;;;;;5043710;28;20465;-83
2022/01/01 09:40:48;;;;;;;3.70;2.20;;;13.10;99.90;;;;;;5043986;28;20525;-83
2022/01/01 09:43:17;;;;;;;2.77;1.63;;;13.20;99.90;;;;;;5043554;28;20855;-82
2022/01/01 09:45:46;;;;;;;2.90;1.50;;;13.20;99.90;;;;;;5044242;28;20967;-82
2022/01/01 09:48:18;;;;;;;2.40;1.90;;;13.40;99.90;;;;;;5044279;28;20943;-83
2022/01/01 09:50:49;;;;;;;2.03;1.80;;;13.40;99.90;;;;;;5043727;28;20450;-82
2022/01/01 09:53:18;;;;;;;2.47;1.80;;;13.60;99.90;;;;;;5053654;28;20476;-83
2022/01/01 09:55:46;;;;;;;3.20;1.87;;;13.70;99.90;;;;;;5057696;28;20466;-83
2022/01/01 09:58:14;;;;;;;2.40;1.67;;;13.90;99.90;;;;;;5043864;28;20549;-84
2022/01/01 10:00:42;;;;;;;1.60;1.50;;;14.10;99.90;;;;;;5043482;28;20474;-83
2022/01/01 10:03:15;;;;;;;1.90;1.57;;;14.30;99.90;;;;;;5042149;28;21057;-83
2022/01/01 10:06:01;;;;;;;3.17;1.73;;;14.50;99.90;;;;;;5047753;28;20447;-83
2022/01/01 10:08:29;;;;;;;2.47;1.80;;;14.80;99.90;;;;;;5061509;28;20454;-84
2022/01/01 10:10:58;;;;;;;2.10;1.90;;;15.00;99.90;;;;;;5061285;28;20501;-84
2022/01/01 10:13:28;;;;;;;2.13;1.90;;;15.20;99.90;;;;;;5053438;28;20459;-83
2022/01/01 10:15:58;;;;;;;3.00;2.00;;;15.70;99.90;;;;;;5046734;28;20470;-83
2022/01/01 10:18:32;;;;;;;3.60;1.90;;;15.80;99.90;;;;;;5043956;28;20457;-83
2022/01/01 10:21:02;;;;;;;2.07;1.83;;;16.10;99.90;;;;;;5044164;28;20463;-84
2022/01/01 10:23:31;;;;;;;2.20;1.87;;;16.30;99.90;;;;;;5043564;28;21170;-82
2022/01/01 10:29:16;;;;;;;2.60;1.70;;;16.40;99.90;;;;;;5072443;28;20882;-83
2022/01/01 10:31:56;;;;;;;2.40;2.00;;;16.70;99.90;;;;;;5054542;28;20474;-83
2022/01/01 10:34:28;;;;;;;2.27;1.60;;;16.90;99.90;;;;;;5063959;28;20445;-84
2022/01/01 10:36:57;;;;;;;2.10;1.33;;;17.10;99.90;;;;;;5051179;28;20899;-84
2022/01/01 10:39:27;;;;;;;1.30;1.20;;;17.20;99.90;;;;;;5063451;28;20451;-83
2022/01/01 10:41:58;;;;;;;2.40;1.77;;;17.30;99.90;;;;;;5057169;28;20467;-83
2022/01/01 10:44:30;;;;;;;1.87;1.70;;;17.40;99.90;;;;;;5050885;28;20493;-84
2022/01/01 10:46:59;;;;;;;1.63;1.40;;;17.50;99.90;;;;;;5064157;28;20473;-84
2022/01/01 10:49:36;;;;;;;1.63;1.23;;;17.50;99.90;;;;;;5056820;28;20462;-84
2022/01/01 10:52:16;;;;;;;1.60;1.17;;;17.60;99.90;;;;;;5044438;28;20482;-81
2022/01/01 10:54:56;;;;;;;1.63;1.20;;;17.70;99.90;;;;;;5053714;28;20537;-84
2022/01/01 10:57:33;;;;;;;1.80;1.20;;;17.70;99.90;;;;;;5060068;28;21232;-83
2022/01/01 11:00:11;;;;;;;1.20;1.07;;;17.90;99.90;;;;;;5055931;28;20521;-84
2022/01/01 11:02:41;;;;;;;1.30;1.20;;;18.00;99.90;;;;;;5063866;28;20477;-83
2022/01/01 11:05:12;;;;;;;2.00;1.33;;;18.00;99.90;;;;;;5047777;28;20561;-83
2022/01/01 11:07:50;;;;;;;2.40;1.60;;;18.20;99.90;;;;;;5042737;28;21067;-83
2022/01/01 11:10:20;;;;;;;1.20;1.10;;;18.30;99.90;;;;;;5045929;28;20451;-84
2022/01/01 11:12:49;;;;;;;1.20;1.10;;;18.40;99.90;;;;;;5057603;28;20944;-84
2022/01/01 11:15:17;;;;;;;1.70;1.50;;;18.40;99.90;;;;;;5047071;28;20455;-84
2022/01/01 11:17:47;;;;;;;2.97;1.20;;;18.60;99.90;;;;;;5047168;28;20459;-84
2022/01/01 11:20:17;;;;;;;1.50;1.20;;;18.70;99.90;;;;;;5057327;28;20465;-85
2022/01/01 11:22:49;;;;;;;2.07;1.17;;;18.90;99.90;;;;;;5062299;28;20905;-84
2022/01/01 11:25:17;;;;;;;1.47;1.00;;;19.00;99.90;;;;;;5049449;28;20538;-84
2022/01/01 11:27:46;;;;;;;2.00;1.10;;;19.10;99.90;;;;;;5062986;28;20473;-86
2022/01/01 11:30:17;;;;;;;1.40;1.13;;;19.20;99.90;;;;;;5045558;28;20455;-84
2022/01/01 11:32:50;;;;;;;2.17;1.10;;;19.30;99.90;;;;;;5047892;28;20478;-84
2022/01/01 11:35:28;;;;;;;2.43;0.80;;;19.30;99.90;;;;;;5060247;28;20451;-83
2022/01/01 11:37:59;;;;;;;1.23;0.80;;;19.20;99.90;;;;;;5054197;28;20458;-83
2022/01/01 11:40:32;;;;;;;1.00;0.73;;;19.00;99.90;;;;;;5065448;28;20439;-84
2022/01/01 11:43:00;;;;;;;0.90;0.80;;;18.70;99.90;;;;;;5055013;28;20489;-84
2022/01/01 11:45:41;;;;;;;0.80;0.80;;;18.60;99.90;;;;;;5067075;28;20640;-84
2022/01/01 11:48:35;;;;;;;0.83;0.70;;;18.70;99.90;;;;;;5067127;28;21099;-84
2022/01/01 11:51:24;;;;;;;0.70;0.67;;;18.70;99.90;;;;;;5057957;28;20901;-85
2022/01/01 11:54:20;;;;;;;1.63;0.80;;;18.60;99.90;;;;;;5046365;28;20444;-83
2022/01/01 11:57:10;;;;;;;0.80;0.70;;;18.50;99.90;;;;;;5061478;28;20879;-84
2022/01/01 12:00:00;;;;;;;0.90;0.80;;;18.50;99.90;;;;;;5055341;28;21209;-83
2022/01/01 12:02:46;;;;;;;1.17;0.80;;;18.50;99.90;;;;;;5060254;28;20485;-84
2022/01/01 12:05:27;;;;;;;1.50;0.90;;;18.40;99.90;;;;;;5049293;28;20564;-84
2022/01/01 12:07:59;;;;;;;0.70;0.57;;;18.50;99.90;;;;;;5053350;28;20498;-84
2022/01/01 12:10:34;;;;;;;0.67;0.60;;;18.40;99.90;;;;;;5045959;28;20459;-84
2022/01/01 12:13:05;;;;;;;0.87;0.70;;;18.50;99.90;;;;;;5044388;28;20482;-84
2022/01/01 12:15:43;;;;;;;0.73;0.73;;;18.60;99.90;;;;;;5052135;28;20457;-84
2022/01/01 12:18:13;;;;;;;0.73;0.57;;;18.40;99.90;;;;;;5065386;28;20446;-83
2022/01/01 12:20:46;;;;;;;1.00;0.90;;;18.30;99.90;;;;;;5057342;28;20458;-83
2022/01/01 12:23:17;;;;;;;0.67;0.60;;;18.40;99.90;;;;;;5044997;28;21033;-84
2022/01/01 12:25:46;;;;;;;0.70;0.63;;;18.30;99.90;;;;;;5045064;28;20494;-84
2022/01/01 12:28:18;;;;;;;4.53;0.83;;;18.40;99.90;;;;;;5060491;28;20462;-83
2022/01/01 12:30:50;;;;;;;0.90;0.90;;;18.20;99.90;;;;;;5063292;28;20453;-83
2022/01/01 12:33:44;;;;;;;0.80;0.80;;;18.10;99.90;;;;;;5062871;28;20485;-83
2022/01/01 12:36:14;;;;;;;1.80;0.83;;;18.10;99.90;;;;;;5045337;28;20455;-84
2022/01/01 12:38:49;;;;;;;1.27;0.93;;;18.00;99.90;;;;;;5045289;28;20459;-83
2022/01/01 12:41:19;;;;;;;0.80;0.80;;;18.10;99.90;;;;;;5046203;28;20807;-83
2022/01/01 12:43:50;;;;;;;0.80;0.80;;;18.10;99.90;;;;;;5042268;28;20458;-83
2022/01/01 12:46:21;;;;;;;1.40;1.00;;;18.20;99.90;;;;;;5042742;28;20551;-84
2022/01/01 12:48:50;;;;;;;1.87;1.27;;;18.30;99.90;;;;;;5044780;28;20494;-84
2022/01/01 12:51:21;;;;;;;1.10;0.90;;;18.20;99.90;;;;;;5043677;28;20514;-83
2022/01/01 12:54:00;;;;;;;1.77;1.03;;;18.20;99.90;;;;;;5045074;28;20464;-85
2022/01/01 12:56:29;;;;;;;0.83;0.83;;;18.20;99.90;;;;;;5043349;28;20473;-84
2022/01/01 12:58:59;;;;;;;1.57;0.90;;;18.20;99.90;;;;;;5044955;28;20469;-84
2022/01/01 13:01:29;;;;;;;1.30;1.00;;;18.20;99.90;;;;;;5044786;28;20447;-84
2022/01/01 13:04:07;;;;;;;1.50;1.20;;;18.10;99.90;;;;;;5044929;28;21007;-83